Time;durP1;ratioP1;P1;durP2;ratioP2;P2;SDS_P1;SDS_P2;PMS_P1;PMS_P2;Temp;Humidity;BMP_temperature;BMP_pressure;BME280_temperature;BME280_humidity;BME280_pressure;Samples;Min_cycle;Max_cycle;Signal;HPM_P1;HPM_P2
2022/09/01 00:01:27;;;;;;;0.10;0.10;;;14.10;99.90;;;;;;4994690;28;20441;-83
2022/09/01 00:04:03;;;;;;;0.10;0.10;;;14.00;99.90;;;;;;4994475;28;20077;-84
2022/09/01 00:06:32;;;;;;;0.13;0.10;;;14.00;99.90;;;;;;4980749;28;20554;-83
2022/09/01 00:09:04;;;;;;;0.20;0.20;;;14.00;99.90;;;;;;4994530;28;20514;-83
2022/09/01 00:11:32;;;;;;;0.00;0.00;;;13.90;99.90;;;;;;4994509;28;20045;-83
2022/09/01 00:14:00;;;;;;;0.20;0.20;;;13.90;99.90;;;;;;4994483;28;20042;-85
2022/09/01 00:16:29;;;;;;;0.00;0.00;;;13.90;99.90;;;;;;5010640;28;20136;-85
2022/09/01 00:18:56;;;;;;;0.13;0.13;;;13.90;99.90;;;;;;4994390;28;20046;-83
2022/09/01 00:21:31;;;;;;;0.28;0.28;;;13.90;99.90;;;;;;4979007;28;20034;-83
2022/09/01 00:23:59;;;;;;;0.10;0.10;;;13.80;99.90;;;;;;4994199;28;20411;-83
2022/09/01 00:26:26;;;;;;;0.10;0.10;;;13.80;99.90;;;;;;4994505;28;20619;-84
2022/09/01 00:28:53;;;;;;;0.13;0.13;;;13.80;99.90;;;;;;4978241;28;20133;-85
2022/09/01 00:31:21;;;;;;;0.28;0.28;;;13.80;99.90;;;;;;4978548;28;20042;-86
2022/09/01 00:33:49;;;;;;;0.10;0.10;;;13.70;99.90;;;;;;5010464;28;20092;-86
2022/09/01 00:36:17;;;;;;;0.10;0.10;;;13.60;99.90;;;;;;4994167;28;20447;-86
2022/09/01 00:38:44;;;;;;;0.05;0.05;;;13.70;99.90;;;;;;4993966;28;20039;-86
2022/09/01 00:41:12;;;;;;;0.10;0.10;;;13.70;99.90;;;;;;4962583;28;20038;-86
2022/09/01 00:43:51;;;;;;;0.20;0.20;;;13.70;99.90;;;;;;4978616;28;20078;-83
2022/09/01 00:46:31;;;;;;;0.20;0.20;;;13.70;99.90;;;;;;4994148;28;20043;-83
2022/09/01 00:49:09;;;;;;;0.10;0.10;;;13.60;99.90;;;;;;4995974;28;20520;-86
2022/09/01 00:51:39;;;;;;;0.20;0.20;;;13.60;99.90;;;;;;5029875;28;20434;-86
2022/09/01 00:54:10;;;;;;;0.20;0.15;;;13.50;99.90;;;;;;5013513;28;20526;-83
2022/09/01 00:56:39;;;;;;;0.10;0.10;;;13.50;99.90;;;;;;5010102;28;20388;-83
2022/09/01 00:59:09;;;;;;;0.00;0.00;;;13.50;99.90;;;;;;5020456;28;20042;-86
2022/09/01 01:01:36;;;;;;;0.10;0.10;;;13.50;99.90;;;;;;5013546;28;20042;-84
2022/09/01 01:04:13;;;;;;;0.17;0.17;;;13.40;99.90;;;;;;5013168;28;20038;-84
2022/09/01 01:06:57;;;;;;;0.10;0.10;;;13.40;99.90;;;;;;5029758;28;20049;-86
2022/09/01 01:09:26;;;;;;;0.00;0.00;;;13.30;99.90;;;;;;5013281;28;20041;-86
2022/09/01 01:11:53;;;;;;;0.10;0.10;;;13.30;99.90;;;;;;4997429;28;20033;-86
2022/09/01 01:14:20;;;;;;;0.10;0.10;;;13.30;99.90;;;;;;4997392;28;20046;-86
2022/09/01 01:16:50;;;;;;;0.10;0.10;;;13.20;99.90;;;;;;4997456;28;20038;-86
2022/09/01 01:25:06;;;;;;;0.10;0.10;;;13.10;99.90;;;;;;5029075;28;20402;-83
2022/09/01 01:27:34;;;;;;;0.28;0.17;;;13.00;99.90;;;;;;4997624;28;20048;-83
2022/09/01 01:30:03;;;;;;;0.10;0.10;;;13.00;99.90;;;;;;5009943;28;20136;-86
2022/09/01 01:32:32;;;;;;;0.05;0.05;;;13.00;99.90;;;;;;4994075;28;20043;-83
2022/09/01 01:35:02;;;;;;;0.15;0.10;;;13.00;99.90;;;;;;4962334;28;20057;-83
2022/09/01 01:37:29;;;;;;;0.43;0.35;;;13.00;99.90;;;;;;4978415;28;20050;-86
2022/09/01 01:39:55;;;;;;;0.15;0.15;;;13.00;99.90;;;;;;4961307;28;20034;-86
2022/09/01 01:42:23;;;;;;;0.10;0.10;;;13.00;99.90;;;;;;4994143;28;20084;-86
2022/09/01 01:44:51;;;;;;;0.10;0.10;;;13.00;99.90;;;;;;4979985;28;20042;-86
2022/09/01 01:47:19;;;;;;;0.22;0.20;;;13.00;99.90;;;;;;4965601;28;20050;-84
2022/09/01 01:49:45;;;;;;;0.10;0.10;;;13.00;99.90;;;;;;4965793;28;20046;-83
2022/09/01 01:52:16;;;;;;;0.00;0.00;;;13.00;99.90;;;;;;4965096;28;20085;-86
2022/09/01 01:54:44;;;;;;;0.13;0.13;;;13.00;99.90;;;;;;4997704;28;20046;-83
2022/09/01 01:57:16;;;;;;;0.20;0.20;;;13.00;99.90;;;;;;5013002;28;20129;-83
2022/09/01 01:59:44;;;;;;;0.20;0.20;;;12.90;99.90;;;;;;4997115;28;20074;-83
2022/09/01 02:02:11;;;;;;;0.00;0.00;;;13.00;99.90;;;;;;4997293;28;20078;-83
2022/09/01 02:04:39;;;;;;;0.20;0.20;;;13.00;99.90;;;;;;5004082;28;20092;-84
2022/09/01 02:07:11;;;;;;;0.40;0.30;;;12.90;99.90;;;;;;5016605;28;20092;-86
2022/09/01 02:09:39;;;;;;;0.10;0.10;;;12.90;99.90;;;;;;5016450;28;20526;-83
2022/09/01 02:12:07;;;;;;;0.20;0.20;;;12.90;99.90;;;;;;5032248;28;20096;-83
2022/09/01 02:14:34;;;;;;;0.10;0.10;;;12.90;99.90;;;;;;5032284;28;20503;-83
2022/09/01 02:17:06;;;;;;;0.00;0.00;;;12.90;99.90;;;;;;5032393;28;20045;-86
2022/09/01 02:19:37;;;;;;;0.10;0.10;;;12.90;99.90;;;;;;5033066;28;20030;-83
2022/09/01 02:22:04;;;;;;;0.28;0.20;;;12.90;99.90;;;;;;5001388;28;20030;-83
2022/09/01 02:24:31;;;;;;;0.20;0.20;;;12.90;99.90;;;;;;5016060;28;20053;-86
2022/09/01 02:26:59;;;;;;;0.13;0.10;;;12.90;99.90;;;;;;4999899;28;20037;-86
2022/09/01 02:29:28;;;;;;;0.20;0.20;;;12.90;99.90;;;;;;5032627;28;20038;-86
2022/09/01 02:31:56;;;;;;;0.10;0.10;;;12.90;99.90;;;;;;4997754;28;20496;-86
2022/09/01 02:34:24;;;;;;;0.10;0.10;;;12.80;99.90;;;;;;4996368;28;20061;-86
2022/09/01 02:36:54;;;;;;;0.10;0.10;;;12.70;99.90;;;;;;4996529;28;20039;-83
2022/09/01 02:39:23;;;;;;;0.13;0.13;;;12.70;99.90;;;;;;5028267;28;20492;-86
2022/09/01 02:41:50;;;;;;;0.17;0.17;;;12.70;99.90;;;;;;5028498;28;20129;-87
2022/09/01 02:44:20;;;;;;;0.40;0.30;;;12.60;99.90;;;;;;5005500;28;20160;-83
2022/09/01 02:46:49;;;;;;;0.10;0.10;;;12.60;99.90;;;;;;5000618;28;20038;-86
2022/09/01 02:49:24;;;;;;;0.03;0.03;;;12.60;99.90;;;;;;5047801;28;20034;-84
2022/09/01 02:51:52;;;;;;;1.02;0.90;;;12.60;99.90;;;;;;5031893;28;20049;-86
2022/09/01 02:54:22;;;;;;;0.10;0.10;;;12.50;99.90;;;;;;5031999;28;20073;-83
2022/09/01 02:56:53;;;;;;;0.10;0.10;;;12.50;99.90;;;;;;5030936;28;20081;-86
2022/09/01 02:59:23;;;;;;;0.10;0.10;;;12.50;99.90;;;;;;5031191;28;20056;-83
2022/09/01 03:01:52;;;;;;;0.10;0.10;;;12.50;99.90;;;;;;5031412;28;20452;-83
2022/09/01 03:04:21;;;;;;;0.10;0.10;;;12.40;99.90;;;;;;5031377;28;20057;-86
2022/09/01 03:06:48;;;;;;;0.38;0.10;;;12.40;99.90;;;;;;5032146;28;20073;-87
2022/09/01 03:09:17;;;;;;;0.57;0.32;;;12.40;99.90;;;;;;5015312;28;20041;-83
2022/09/01 03:11:46;;;;;;;0.17;0.17;;;12.50;99.90;;;;;;5015099;28;20129;-83
2022/09/01 03:14:14;;;;;;;0.10;0.10;;;12.40;99.90;;;;;;5028208;28;20116;-86
2022/09/01 03:16:40;;;;;;;0.38;0.20;;;12.40;99.90;;;;;;5011817;28;20093;-83
2022/09/01 03:19:08;;;;;;;0.17;0.17;;;12.40;99.90;;;;;;5027650;28;20050;-86
2022/09/01 03:21:40;;;;;;;0.20;0.20;;;12.40;99.90;;;;;;5011959;28;20045;-83
2022/09/01 03:24:08;;;;;;;0.10;0.10;;;12.30;99.90;;;;;;5011516;28;20426;-83
2022/09/01 03:26:35;;;;;;;0.20;0.20;;;12.30;99.90;;;;;;5013977;28;20502;-86
2022/09/01 03:29:03;;;;;;;0.10;0.10;;;12.30;99.90;;;;;;5006911;28;20717;-86
2022/09/01 03:31:30;;;;;;;0.15;0.10;;;12.30;99.90;;;;;;4995912;28;20078;-83
2022/09/01 03:33:59;;;;;;;0.25;0.25;;;12.30;99.90;;;;;;5011178;28;20507;-83
2022/09/01 03:36:27;;;;;;;0.10;0.10;;;12.30;99.90;;;;;;5011017;28;20046;-83
2022/09/01 03:38:54;;;;;;;0.30;0.15;;;12.30;99.90;;;;;;4994895;28;20504;-83
2022/09/01 03:41:25;;;;;;;0.10;0.10;;;12.30;99.90;;;;;;4994640;28;20042;-86
2022/09/01 03:43:56;;;;;;;0.10;0.10;;;12.20;99.90;;;;;;5011285;28;20043;-83
2022/09/01 03:46:24;;;;;;;0.15;0.10;;;12.30;99.90;;;;;;5011672;28;20526;-83
2022/09/01 03:48:53;;;;;;;0.20;0.15;;;12.30;99.90;;;;;;4994984;28;20070;-86
2022/09/01 03:51:22;;;;;;;0.10;0.10;;;12.30;99.90;;;;;;5010402;28;20054;-83
2022/09/01 03:53:53;;;;;;;0.32;0.10;;;12.30;99.90;;;;;;5011010;28;20046;-83
2022/09/01 03:56:23;;;;;;;0.22;0.22;;;12.20;99.90;;;;;;4995577;28;20116;-86
2022/09/01 03:58:50;;;;;;;0.20;0.20;;;12.20;99.90;;;;;;5010851;28;20622;-86
2022/09/01 04:01:18;;;;;;;0.17;0.17;;;12.20;99.90;;;;;;4994991;28;20045;-86
2022/09/01 04:03:50;;;;;;;0.28;0.28;;;12.20;99.90;;;;;;5011817;28;20038;-85
2022/09/01 04:06:22;;;;;;;0.10;0.10;;;12.20;99.90;;;;;;5011396;28;20514;-85
2022/09/01 04:08:54;;;;;;;0.20;0.20;;;12.20;99.90;;;;;;5011659;28;20100;-82
2022/09/01 04:11:22;;;;;;;0.10;0.10;;;12.20;99.90;;;;;;4995248;28;20049;-85
2022/09/01 04:13:51;;;;;;;0.55;0.30;;;12.20;99.90;;;;;;4995392;28;20042;-85
2022/09/01 04:19:24;;;;;;;0.20;0.15;;;12.30;99.90;;;;;;5026963;28;20626;-85
2022/09/01 04:21:54;;;;;;;0.10;0.10;;;12.30;99.90;;;;;;5011410;28;20034;-82
2022/09/01 04:24:23;;;;;;;0.20;0.20;;;12.30;99.90;;;;;;5026798;28;20045;-82
2022/09/01 04:26:51;;;;;;;0.10;0.10;;;12.30;99.90;;;;;;5011029;28;20088;-85
2022/09/01 04:29:26;;;;;;;0.13;0.10;;;12.40;99.90;;;;;;5021992;28;20046;-82
2022/09/01 04:31:55;;;;;;;0.20;0.20;;;12.40;99.90;;;;;;5010442;28;20042;-85
2022/09/01 04:34:25;;;;;;;0.20;0.20;;;12.40;99.90;;;;;;5010235;28;20046;-85
2022/09/01 04:36:53;;;;;;;0.20;0.20;;;12.50;99.90;;;;;;5002772;28;20143;-85
2022/09/01 04:39:20;;;;;;;0.20;0.10;;;12.50;99.90;;;;;;5043827;28;20594;-85
2022/09/01 04:41:48;;;;;;;0.10;0.10;;;12.50;99.90;;;;;;5013836;28;20041;-82
2022/09/01 04:44:17;;;;;;;0.32;0.28;;;12.50;99.90;;;;;;5026174;28;20039;-85
2022/09/01 04:46:47;;;;;;;0.10;0.10;;;12.50;99.90;;;;;;5027644;28;20494;-82
2022/09/01 04:49:18;;;;;;;0.13;0.13;;;12.50;99.90;;;;;;5029897;28;20038;-83
2022/09/01 04:51:48;;;;;;;0.10;0.10;;;12.60;99.90;;;;;;5030282;28;20060;-83
2022/09/01 04:54:15;;;;;;;0.20;0.20;;;12.60;99.90;;;;;;5029508;28;20112;-83
2022/09/01 04:56:45;;;;;;;0.20;0.20;;;12.60;99.90;;;;;;5026611;28;20038;-82
2022/09/01 04:59:13;;;;;;;0.10;0.10;;;12.60;99.90;;;;;;5041391;28;20041;-83
2022/09/01 05:01:43;;;;;;;0.10;0.10;;;12.60;99.90;;;;;;5010684;28;20039;-83
2022/09/01 05:04:16;;;;;;;0.13;0.13;;;12.60;99.90;;;;;;5029470;28;20488;-85
2022/09/01 05:06:48;;;;;;;0.10;0.10;;;12.60;99.90;;;;;;5010843;28;20463;-85
2022/09/01 05:09:16;;;;;;;0.73;0.35;;;12.60;99.90;;;;;;5012513;28;20096;-82
2022/09/01 05:11:44;;;;;;;0.20;0.20;;;12.60;99.90;;;;;;4997586;28;20064;-85
2022/09/01 05:14:17;;;;;;;0.73;0.32;;;12.60;99.90;;;;;;4982260;28;20551;-83
2022/09/01 05:16:45;;;;;;;0.38;0.20;;;12.70;99.90;;;;;;4982754;28;20403;-85
2022/09/01 05:19:16;;;;;;;0.08;0.08;;;12.70;99.90;;;;;;5030429;28;20502;-85
2022/09/01 05:21:45;;;;;;;0.10;0.10;;;12.70;99.90;;;;;;5033749;28;20077;-86
2022/09/01 05:24:17;;;;;;;0.20;0.20;;;12.80;99.90;;;;;;5017466;28;20077;-83
2022/09/01 05:26:49;;;;;;;0.30;0.20;;;12.80;99.90;;;;;;5017497;28;20038;-82
2022/09/01 05:29:17;;;;;;;0.20;0.20;;;12.90;99.90;;;;;;5017392;28;20078;-82
2022/09/01 05:31:46;;;;;;;0.13;0.10;;;12.90;99.90;;;;;;5008561;28;20533;-85
2022/09/01 05:34:25;;;;;;;0.40;0.30;;;13.00;99.90;;;;;;4997679;28;20499;-85
2022/09/01 05:36:58;;;;;;;0.15;0.15;;;13.10;99.90;;;;;;4997552;28;20092;-82
2022/09/01 05:39:26;;;;;;;0.35;0.20;;;13.10;99.90;;;;;;4997591;28;20112;-82
2022/09/01 05:41:52;;;;;;;0.10;0.10;;;13.20;99.90;;;;;;4981757;28;20164;-82
2022/09/01 05:44:23;;;;;;;0.08;0.08;;;13.20;99.90;;;;;;4997531;28;20077;-85
2022/09/01 05:46:51;;;;;;;0.20;0.20;;;13.20;99.90;;;;;;4997701;28;20496;-82
2022/09/01 05:49:18;;;;;;;0.20;0.20;;;13.20;99.90;;;;;;4981446;28;20069;-82
2022/09/01 05:51:48;;;;;;;0.20;0.20;;;13.30;99.90;;;;;;4980942;28;20046;-85
2022/09/01 05:54:17;;;;;;;0.20;0.20;;;13.30;99.90;;;;;;5013030;28;20049;-84
2022/09/01 05:56:44;;;;;;;0.20;0.20;;;13.40;99.90;;;;;;4981356;28;20046;-86
2022/09/01 05:59:12;;;;;;;0.00;0.00;;;13.50;99.90;;;;;;4981143;28;20042;-82
2022/09/01 06:01:39;;;;;;;0.20;0.20;;;13.50;99.90;;;;;;4981107;28;20462;-86
2022/09/01 06:04:08;;;;;;;0.10;0.10;;;13.60;99.90;;;;;;4992717;28;20037;-83
2022/09/01 06:06:48;;;;;;;0.10;0.10;;;13.70;99.90;;;;;;4996619;28;20105;-86
2022/09/01 06:09:17;;;;;;;0.28;0.28;;;13.70;99.90;;;;;;4981608;28;20057;-82
2022/09/01 06:11:46;;;;;;;0.10;0.10;;;13.70;99.90;;;;;;5010378;28;20049;-86
2022/09/01 06:14:18;;;;;;;0.20;0.20;;;13.80;99.90;;;;;;5004841;28;20517;-86
2022/09/01 06:16:46;;;;;;;0.28;0.22;;;13.80;99.90;;;;;;4980899;28;20492;-83
2022/09/01 06:19:13;;;;;;;0.15;0.15;;;13.80;99.90;;;;;;4980978;28;20078;-83
2022/09/01 06:21:40;;;;;;;0.10;0.10;;;13.90;99.90;;;;;;4996543;28;20097;-83
2022/09/01 06:24:07;;;;;;;0.10;0.10;;;14.00;99.90;;;;;;4982492;28;20030;-87
2022/09/01 06:26:37;;;;;;;0.10;0.10;;;14.00;99.90;;;;;;4996538;28;20042;-83
2022/09/01 06:29:08;;;;;;;0.13;0.10;;;14.10;99.90;;;;;;4996444;28;20046;-83
2022/09/01 06:31:38;;;;;;;0.10;0.10;;;14.20;99.90;;;;;;5007442;28;20045;-86
2022/09/01 06:34:07;;;;;;;0.13;0.13;;;14.30;99.90;;;;;;5022512;28;20498;-87
2022/09/01 06:36:39;;;;;;;0.30;0.20;;;14.30;99.90;;;;;;5016543;28;20045;-83
2022/09/01 06:39:07;;;;;;;0.13;0.13;;;14.40;99.90;;;;;;5032480;28;20045;-84
2022/09/01 06:41:38;;;;;;;0.17;0.08;;;14.50;99.90;;;;;;5016217;28;20049;-84
2022/09/01 06:44:05;;;;;;;0.28;0.28;;;14.50;99.90;;;;;;5008281;28;20038;-86
2022/09/01 06:46:33;;;;;;;0.10;0.10;;;14.60;99.90;;;;;;4998587;28;20519;-84
2022/09/01 06:48:59;;;;;;;0.13;0.13;;;14.70;99.90;;;;;;4984023;28;20045;-83
2022/09/01 06:51:28;;;;;;;0.20;0.20;;;14.80;99.90;;;;;;5000108;28;20041;-85
2022/09/01 06:53:55;;;;;;;0.10;0.10;;;14.80;99.90;;;;;;5015740;28;20048;-83
2022/09/01 06:56:23;;;;;;;0.10;0.10;;;14.90;99.90;;;;;;4999562;28;20133;-86
2022/09/01 06:58:52;;;;;;;0.20;0.20;;;15.00;99.90;;;;;;4982857;28;20042;-86
2022/09/01 07:01:21;;;;;;;0.15;0.15;;;14.90;99.90;;;;;;5013795;28;20087;-83
2022/09/01 07:03:50;;;;;;;0.20;0.10;;;15.10;99.90;;;;;;5015001;28;20120;-83
2022/09/01 07:06:23;;;;;;;0.30;0.30;;;15.10;99.90;;;;;;5031246;28;20044;-87
2022/09/01 07:08:53;;;;;;;0.35;0.20;;;15.20;99.90;;;;;;4999724;28;20049;-84
2022/09/01 07:11:26;;;;;;;0.15;0.10;;;15.30;99.90;;;;;;4984183;28;20038;-83
2022/09/01 07:13:56;;;;;;;0.25;0.25;;;15.40;99.90;;;;;;5014649;28;20129;-83
2022/09/01 07:16:25;;;;;;;0.50;0.20;;;15.40;99.90;;;;;;5011561;28;20042;-83
2022/09/01 07:18:56;;;;;;;0.13;0.13;;;15.60;99.90;;;;;;4979852;28;20046;-86
2022/09/01 07:21:25;;;;;;;0.05;0.00;;;15.60;99.90;;;;;;4995776;28;20050;-84
2022/09/01 07:23:52;;;;;;;0.10;0.10;;;15.70;99.90;;;;;;4995681;28;20066;-87
2022/09/01 07:26:20;;;;;;;0.38;0.20;;;15.80;99.90;;;;;;4996135;28;20165;-84
2022/09/01 07:28:51;;;;;;;0.10;0.10;;;15.80;99.90;;;;;;4990525;28;20065;-84
2022/09/01 07:31:25;;;;;;;0.20;0.20;;;15.90;99.90;;;;;;5031382;28;20073;-86
2022/09/01 07:33:56;;;;;;;0.28;0.10;;;16.00;99.90;;;;;;5015101;28;20120;-86
2022/09/01 07:36:22;;;;;;;0.10;0.10;;;16.20;99.90;;;;;;5014158;28;20137;-82
2022/09/01 07:38:52;;;;;;;0.10;0.10;;;16.40;99.90;;;;;;4998191;28;20117;-83
2022/09/01 07:41:21;;;;;;;0.40;0.28;;;16.60;99.90;;;;;;4983628;28;20038;-83
2022/09/01 07:43:50;;;;;;;0.20;0.20;;;16.80;99.90;;;;;;5014075;28;20038;-83
2022/09/01 07:46:17;;;;;;;0.10;0.10;;;16.90;99.90;;;;;;5011001;28;20180;-83
2022/09/01 07:48:44;;;;;;;0.38;0.30;;;17.10;99.90;;;;;;4996746;28;20172;-83
2022/09/01 07:51:12;;;;;;;0.00;0.00;;;17.10;99.90;;;;;;4998248;28;20045;-84
2022/09/01 07:53:40;;;;;;;0.20;0.20;;;17.20;99.90;;;;;;4992934;28;20466;-84
2022/09/01 07:56:09;;;;;;;0.20;0.20;;;17.30;99.90;;;;;;5030157;28;20038;-84
2022/09/01 07:58:38;;;;;;;0.10;0.10;;;17.40;99.90;;;;;;5011255;28;20039;-84
2022/09/01 08:01:10;;;;;;;0.22;0.17;;;17.40;99.90;;;;;;4997359;28;20053;-84
2022/09/01 08:03:38;;;;;;;0.20;0.20;;;17.50;99.90;;;;;;5007471;28;20439;-84
2022/09/01 08:06:09;;;;;;;0.05;0.05;;;17.60;99.90;;;;;;5029318;28;20058;-84
2022/09/01 08:08:38;;;;;;;0.15;0.15;;;17.70;99.90;;;;;;5009972;28;20174;-85
2022/09/01 08:11:07;;;;;;;0.25;0.25;;;17.80;99.90;;;;;;4995008;28;20400;-84
2022/09/01 08:13:36;;;;;;;0.35;0.28;;;17.90;99.90;;;;;;4993711;28;20128;-88
2022/09/01 08:16:04;;;;;;;0.10;0.08;;;18.00;99.90;;;;;;5009652;28;20108;-86
2022/09/01 08:18:31;;;;;;;0.20;0.10;;;18.20;99.90;;;;;;5000559;28;20476;-87
2022/09/01 08:20:58;;;;;;;0.20;0.13;;;18.30;99.90;;;;;;5006015;28;20133;-90
2022/09/01 08:23:26;;;;;;;0.40;0.38;;;18.30;99.90;;;;;;4996967;28;20045;-84
2022/09/01 08:25:53;;;;;;;0.30;0.30;;;18.40;99.90;;;;;;4981507;28;20076;-86
2022/09/01 08:28:20;;;;;;;0.32;0.30;;;18.50;99.90;;;;;;5011273;28;20572;-86
2022/09/01 08:30:49;;;;;;;0.20;0.20;;;18.60;99.90;;;;;;4977420;28;20042;-83
2022/09/01 08:33:16;;;;;;;0.10;0.10;;;18.80;99.90;;;;;;4995301;28;20079;-83
2022/09/01 08:35:46;;;;;;;0.25;0.20;;;18.80;99.90;;;;;;5012589;28;20817;-84
2022/09/01 08:38:13;;;;;;;0.30;0.30;;;18.90;99.90;;;;;;5010256;28;20057;-84
2022/09/01 08:40:42;;;;;;;0.22;0.22;;;19.00;99.90;;;;;;4975726;28;20448;-84
2022/09/01 08:43:24;;;;;;;0.20;0.20;;;19.10;99.90;;;;;;5013356;28;20092;-84
2022/09/01 08:45:54;;;;;;;0.35;0.25;;;19.20;99.90;;;;;;5011795;28;20039;-85
2022/09/01 08:48:27;;;;;;;0.52;0.32;;;19.40;99.90;;;;;;5013517;28;20038;-85
2022/09/01 08:51:02;;;;;;;0.25;0.20;;;19.50;99.90;;;;;;5012364;28;20042;-88
2022/09/01 08:53:46;;;;;;;0.10;0.10;;;19.60;99.90;;;;;;5013029;28;20046;-83
2022/09/01 08:56:16;;;;;;;0.30;0.22;;;19.80;99.90;;;;;;5016857;28;20077;-87
2022/09/01 08:58:43;;;;;;;0.60;0.40;;;19.90;99.90;;;;;;5033041;28;20519;-83
2022/09/01 09:01:35;;;;;;;1.40;0.28;;;20.00;99.90;;;;;;5017478;28;20096;-88
2022/09/01 09:04:24;;;;;;;0.22;0.20;;;20.00;99.90;;;;;;5016837;28;20176;-87
2022/09/01 09:06:58;;;;;;;0.13;0.10;;;20.20;99.90;;;;;;5033084;28;20491;-87
2022/09/01 09:09:37;;;;;;;0.20;0.20;;;20.30;99.90;;;;;;5017554;28;20037;-87
2022/09/01 09:12:14;;;;;;;0.20;0.20;;;20.40;99.90;;;;;;5013213;28;20474;-86
2022/09/01 09:14:59;;;;;;;0.10;0.10;;;20.40;99.90;;;;;;5000407;28;20076;-83
2022/09/01 09:17:33;;;;;;;0.10;0.10;;;20.50;99.90;;;;;;5014553;28;20038;-88
2022/09/01 09:20:01;;;;;;;0.10;0.10;;;20.60;99.90;;;;;;5010792;28;20038;-87
2022/09/01 09:22:27;;;;;;;0.08;0.08;;;20.80;99.90;;;;;;4996988;28;20038;-83
2022/09/01 09:25:07;;;;;;;0.38;0.20;;;20.90;99.90;;;;;;5003902;28;20046;-83
2022/09/01 09:27:38;;;;;;;0.20;0.20;;;21.00;99.90;;;;;;5017003;28;20092;-83
2022/09/01 09:30:11;;;;;;;0.25;0.22;;;21.10;99.90;;;;;;5016598;28;20042;-83
2022/09/01 09:32:50;;;;;;;0.10;0.10;;;21.20;99.90;;;;;;5016642;28;20044;-83
2022/09/01 09:35:17;;;;;;;0.00;0.00;;;21.30;99.90;;;;;;5016885;28;20048;-83
2022/09/01 09:37:44;;;;;;;0.57;0.10;;;21.30;99.90;;;;;;5016812;28;20045;-83
2022/09/01 09:40:25;;;;;;;0.30;0.20;;;21.40;99.90;;;;;;5000690;28;20037;-87
2022/09/01 09:42:55;;;;;;;0.17;0.17;;;21.40;99.90;;;;;;4987255;28;20078;-87
2022/09/01 09:45:23;;;;;;;0.00;0.00;;;21.50;99.90;;;;;;4997920;28;20030;-83
2022/09/01 09:47:52;;;;;;;0.10;0.10;;;21.60;99.90;;;;;;5012688;28;20134;-85
2022/09/01 09:50:36;;;;;;;0.08;0.08;;;21.60;99.90;;;;;;4981206;28;20049;-84
2022/09/01 09:53:25;;;;;;;0.00;0.00;;;21.70;99.90;;;;;;5013904;28;20037;-83
2022/09/01 09:55:59;;;;;;;0.10;0.10;;;21.70;99.90;;;;;;5016556;28;20042;-86
2022/09/01 09:58:36;;;;;;;0.25;0.20;;;21.80;99.90;;;;;;5032700;28;20073;-83
2022/09/01 10:01:26;;;;;;;0.13;0.13;;;22.00;99.90;;;;;;5015819;28;20073;-86
2022/09/01 10:03:58;;;;;;;0.00;0.00;;;22.00;99.90;;;;;;5003882;28;20073;-84
2022/09/01 10:06:33;;;;;;;0.10;0.10;;;22.10;99.90;;;;;;5005233;28;20038;-85
2022/09/01 10:09:04;;;;;;;0.10;0.10;;;22.20;99.90;;;;;;5024549;28;20045;-81
2022/09/01 10:11:39;;;;;;;0.28;0.20;;;22.40;99.90;;;;;;5016345;28;20042;-82
2022/09/01 10:14:13;;;;;;;0.35;0.17;;;22.50;99.90;;;;;;5016087;28;20045;-85
2022/09/01 10:16:41;;;;;;;0.20;0.20;;;22.60;99.90;;;;;;5009411;28;20053;-82
2022/09/01 10:19:12;;;;;;;0.10;0.10;;;22.70;99.90;;;;;;4980232;28;20042;-86
2022/09/01 10:21:43;;;;;;;0.03;0.03;;;22.80;99.90;;;;;;4996874;28;20146;-82
2022/09/01 10:24:30;;;;;;;0.10;0.10;;;22.90;99.90;;;;;;4995961;28;20480;-82
2022/09/01 10:27:00;;;;;;;0.20;0.20;;;22.80;99.90;;;;;;5028020;28;20899;-86
2022/09/01 10:29:32;;;;;;;0.10;0.10;;;22.80;99.70;;;;;;5015886;28;20046;-82
2022/09/01 10:32:01;;;;;;;0.00;0.00;;;22.80;99.90;;;;;;5012329;28;20056;-83
2022/09/01 10:34:33;;;;;;;0.55;0.35;;;22.50;99.90;;;;;;5013902;28;20041;-83
2022/09/01 10:37:00;;;;;;;0.10;0.10;;;22.40;99.90;;;;;;5009126;28;20458;-83
2022/09/01 10:39:27;;;;;;;0.10;0.10;;;22.40;99.90;;;;;;5031425;28;20034;-86
2022/09/01 10:41:56;;;;;;;0.10;0.10;;;22.50;99.90;;;;;;4982553;28;20133;-83
2022/09/01 10:44:32;;;;;;;0.08;0.08;;;22.70;97.90;;;;;;4983710;28;20038;-82
2022/09/01 10:47:32;;;;;;;0.25;0.15;;;22.70;97.70;;;;;;5006514;28;20121;-84
2022/09/01 10:50:03;;;;;;;0.28;0.20;;;22.60;98.00;;;;;;5014494;28;20487;-84
2022/09/01 10:52:39;;;;;;;0.10;0.10;;;22.60;98.10;;;;;;5015726;28;20049;-83
2022/09/01 10:55:20;;;;;;;0.10;0.10;;;22.70;98.80;;;;;;5026428;28;20033;-83
2022/09/01 10:57:54;;;;;;;0.00;0.00;;;22.90;98.00;;;;;;5011775;28;20049;-85
2022/09/01 11:00:24;;;;;;;0.28;0.20;;;23.00;99.50;;;;;;4996107;28;20034;-87
2022/09/01 11:03:10;;;;;;;0.10;0.10;;;23.10;98.90;;;;;;5031848;28;20037;-87
2022/09/01 11:06:07;;;;;;;0.10;0.10;;;23.20;97.30;;;;;;5026052;28;20046;-83
2022/09/01 11:08:33;;;;;;;0.10;0.10;;;23.30;97.10;;;;;;5010082;28;20054;-84
2022/09/01 11:11:08;;;;;;;0.22;0.20;;;23.30;97.90;;;;;;5046830;28;20549;-85
2022/09/01 11:13:55;;;;;;;0.20;0.20;;;23.40;98.20;;;;;;5026463;28;20422;-84
2022/09/01 11:16:35;;;;;;;0.13;0.10;;;23.20;96.50;;;;;;5029739;28;20045;-83
2022/09/01 11:19:31;;;;;;;0.10;0.10;;;23.00;96.20;;;;;;5046412;28;20050;-84
2022/09/01 11:22:04;;;;;;;0.17;0.10;;;22.90;94.90;;;;;;5027684;28;20056;-85
2022/09/01 11:24:37;;;;;;;0.10;0.10;;;23.20;97.30;;;;;;5029478;28;20033;-86
2022/09/01 11:27:05;;;;;;;0.10;0.10;;;23.00;95.90;;;;;;5030551;28;20128;-86
2022/09/01 11:29:55;;;;;;;0.20;0.20;;;23.20;97.30;;;;;;5007807;28;20529;-83
2022/09/01 11:32:30;;;;;;;0.10;0.10;;;23.30;96.00;;;;;;5031259;28;20037;-83
2022/09/01 11:34:58;;;;;;;0.30;0.20;;;23.40;97.50;;;;;;5031289;28;20156;-87
2022/09/01 11:37:26;;;;;;;0.20;0.20;;;23.40;96.90;;;;;;5014859;28;20049;-84
2022/09/01 11:40:02;;;;;;;0.13;0.10;;;23.50;96.00;;;;;;4998903;28;20077;-83
2022/09/01 11:42:42;;;;;;;0.30;0.20;;;23.40;94.50;;;;;;5030267;28;20407;-83
2022/09/01 11:45:18;;;;;;;0.08;0.08;;;23.40;94.50;;;;;;5031272;28;20045;-86
2022/09/01 11:47:49;;;;;;;0.22;0.20;;;23.20;94.60;;;;;;5030935;28;20041;-84
2022/09/01 11:50:26;;;;;;;0.10;0.10;;;23.20;94.10;;;;;;5030464;28;20060;-87
2022/09/01 11:53:03;;;;;;;0.15;0.10;;;23.10;95.20;;;;;;5027125;28;20447;-86
2022/09/01 11:55:37;;;;;;;0.20;0.10;;;23.20;95.20;;;;;;5015042;28;20037;-84
2022/09/01 11:58:04;;;;;;;0.28;0.20;;;23.20;94.40;;;;;;5030916;28;20042;-87
2022/09/01 12:00:38;;;;;;;0.30;0.20;;;23.30;95.40;;;;;;5013804;28;20034;-83
2022/09/01 12:03:22;;;;;;;0.43;0.30;;;23.40;95.90;;;;;;5030963;28;20057;-88
2022/09/01 12:05:59;;;;;;;0.10;0.10;;;23.50;94.50;;;;;;5046574;28;20049;-84
2022/09/01 12:08:29;;;;;;;0.30;0.20;;;23.70;94.10;;;;;;5029032;28;20058;-82
2022/09/01 12:11:04;;;;;;;0.00;0.00;;;23.80;93.10;;;;;;5027990;28;20052;-87
2022/09/01 12:13:30;;;;;;;0.10;0.10;;;23.90;93.80;;;;;;5029635;28;20045;-86
2022/09/01 12:16:00;;;;;;;0.10;0.10;;;23.90;94.80;;;;;;5025941;28;20038;-82
2022/09/01 12:18:34;;;;;;;0.00;0.00;;;23.90;93.60;;;;;;5039869;28;20041;-86
2022/09/01 12:21:06;;;;;;;0.00;0.00;;;23.90;94.40;;;;;;5013902;28;20057;-90
2022/09/01 12:23:36;;;;;;;0.10;0.10;;;24.00;94.40;;;;;;5029338;28;20069;-83
2022/09/01 12:26:05;;;;;;;0.10;0.10;;;24.00;94.00;;;;;;5028809;28;20038;-82
2022/09/01 12:28:34;;;;;;;0.17;0.10;;;24.00;94.50;;;;;;5045398;28;20045;-82
2022/09/01 12:31:06;;;;;;;0.10;0.10;;;23.90;93.90;;;;;;5012101;28;20050;-83
2022/09/01 12:33:33;;;;;;;0.20;0.20;;;24.00;93.70;;;;;;5013266;28;20537;-88
2022/09/01 12:36:34;;;;;;;0.10;0.10;;;24.00;93.20;;;;;;5013446;28;20069;-84
2022/09/01 12:39:37;;;;;;;0.22;0.10;;;24.00;92.80;;;;;;4980301;28;20062;-83
2022/09/01 12:42:26;;;;;;;0.30;0.20;;;24.00;92.80;;;;;;5024514;28;20138;-83
2022/09/01 12:45:06;;;;;;;0.10;0.10;;;23.80;93.10;;;;;;5026211;28;20448;-83
2022/09/01 12:47:36;;;;;;;0.10;0.10;;;23.60;93.20;;;;;;5025881;28;20048;-88
2022/09/01 12:50:26;;;;;;;0.10;0.10;;;23.30;93.70;;;;;;5029438;28;20046;-83
2022/09/01 12:52:57;;;;;;;0.10;0.10;;;23.10;92.60;;;;;;5029968;28;20138;-83
2022/09/01 12:55:29;;;;;;;0.20;0.20;;;23.20;94.20;;;;;;5029615;28;20044;-83
2022/09/01 12:58:02;;;;;;;0.00;0.00;;;23.30;93.90;;;;;;5026870;28;20046;-84
2022/09/01 13:00:50;;;;;;;0.08;0.08;;;23.40;93.10;;;;;;5028371;28;20507;-84
2022/09/01 13:03:20;;;;;;;0.05;0.05;;;23.50;93.30;;;;;;5008512;28;20045;-83
2022/09/01 13:05:52;;;;;;;0.10;0.10;;;23.70;93.40;;;;;;4997938;28;20442;-88
2022/09/01 13:08:28;;;;;;;0.10;0.10;;;23.60;91.60;;;;;;5045118;28;20165;-85
2022/09/01 13:11:07;;;;;;;0.00;0.00;;;23.30;92.70;;;;;;5045243;28;20477;-86
2022/09/01 13:13:34;;;;;;;0.05;0.05;;;23.10;92.90;;;;;;5010318;28;20487;-86
2022/09/01 13:16:09;;;;;;;0.17;0.10;;;23.00;93.60;;;;;;5009483;28;20035;-83
2022/09/01 13:18:36;;;;;;;0.10;0.10;;;23.10;93.80;;;;;;5009147;28;20069;-83